Terminal Aerodrome Forecast
Issued by NWS Caribou, ME

Home | Current Version | Previous Version | Text Only | Print | Product List | Glossary On
Versions: 1 2 3 4 5 6 7 8 9 10 11 12 13 14 15 16 17 18
000
FTUS41 KCAR 231740
TAFCAR
TAF
KCAR 231740Z 2318/2418 15006KT P6SM BKN250
     FM240300 19007KT 5SM BR OVC008
     FM240700 18005KT 1SM -DZ BR OVC003
     FM241300 17007KT 2SM BR OVC008
     FM241500 18010KT P6SM OVC010=

USA.gov is the U.S. government's official web portal to all federal, state and local government web resources and services.